createdAt,value
2023-11-29T00:01:25.057Z,100019.81
2023-11-29T00:04:12.585Z,100022.66
2023-11-29T00:07:00.241Z,100027.94
2023-11-29T00:09:47.825Z,100022.38
2023-11-29T00:12:35.339Z,100023.16
2023-11-29T00:15:23.136Z,100025.91
2023-11-29T00:18:10.935Z,100026.28
2023-11-29T00:21:01.167Z,100023.63
2023-11-29T00:23:48.721Z,100022.97
2023-11-29T00:26:36.377Z,100033.53
2023-11-29T00:29:25.986Z,100040.38
2023-11-29T00:32:13.731Z,100032.28
2023-11-29T00:35:01.298Z,100028.09
2023-11-29T00:37:48.920Z,100029.53
2023-11-29T00:40:36.417Z,100027.00
2023-11-29T00:43:23.995Z,100023.56
2023-11-29T00:46:11.558Z,100033.34
2023-11-29T00:48:59.075Z,100040.19
2023-11-29T00:51:46.786Z,100042.75
2023-11-29T00:54:34.294Z,100043.66
2023-11-29T00:57:21.934Z,100040.13
2023-11-29T01:00:09.708Z,100032.38
2023-11-29T01:02:59.592Z,100028.16
2023-11-29T01:05:47.692Z,100030.72
2023-11-29T01:08:35.356Z,100030.56
2023-11-29T01:11:25.062Z,100026.13
2023-11-29T01:14:13.555Z,100033.16
2023-11-29T01:17:01.473Z,100039.13
2023-11-29T01:19:48.984Z,100031.69
2023-11-29T01:22:37.156Z,100032.63
2023-11-29T01:25:24.735Z,100041.47
2023-11-29T01:28:12.367Z,100039.47
2023-11-29T01:30:59.863Z,100036.94
2023-11-29T01:33:47.519Z,100044.78
2023-11-29T01:36:35.095Z,100046.22
2023-11-29T01:39:22.617Z,100045.72
2023-11-29T01:42:11.926Z,100055.50
2023-11-29T01:44:59.650Z,100046.75
2023-11-29T01:47:47.571Z,100051.88
2023-11-29T01:50:37.815Z,100058.03
2023-11-29T01:53:30.912Z,100055.41
2023-11-29T01:56:21.086Z,100058.06
2023-11-29T01:59:08.798Z,100062.44
2023-11-29T02:01:56.505Z,100044.69
2023-11-29T02:04:44.621Z,100056.25
2023-11-29T02:07:33.028Z,100058.81
2023-11-29T02:10:20.575Z,100060.78
2023-11-29T02:13:08.591Z,100069.38
2023-11-29T02:15:56.130Z,100069.38
2023-11-29T02:18:47.107Z,100064.25
2023-11-29T02:21:34.737Z,100074.06
2023-11-29T02:24:25.514Z,100069.78
2023-11-29T02:27:13.256Z,100077.06
2023-11-29T02:30:00.797Z,100075.03
2023-11-29T02:32:48.550Z,100082.06
2023-11-29T02:35:36.207Z,100083.72
2023-11-29T02:38:23.901Z,100081.91
2023-11-29T02:41:11.513Z,100087.19
2023-11-29T02:44:00.260Z,100084.81
2023-11-29T02:46:47.756Z,100078.59
2023-11-29T02:49:35.660Z,100081.16
2023-11-29T02:52:23.152Z,100086.38
2023-11-29T02:55:10.722Z,100079.25
2023-11-29T02:57:59.749Z,100086.25
2023-11-29T03:00:47.424Z,100078.41
2023-11-29T03:03:35.028Z,100082.78
2023-11-29T03:06:22.655Z,100076.59
2023-11-29T03:09:10.174Z,100081.91
2023-11-29T03:11:57.888Z,100078.44
2023-11-29T03:14:45.431Z,100078.59
2023-11-29T03:17:33.196Z,100078.59
2023-11-29T03:20:20.921Z,100077.88
2023-11-29T03:23:08.445Z,100082.34
2023-11-29T03:25:56.018Z,100076.78
2023-11-29T03:28:43.546Z,100085.47
2023-11-29T03:31:31.108Z,100087.13
2023-11-29T03:34:19.015Z,100086.31
2023-11-29T03:37:06.537Z,100085.53
2023-11-29T03:39:54.100Z,100087.03
2023-11-29T03:42:41.599Z,100082.97
2023-11-29T03:45:30.132Z,100085.53
2023-11-29T03:48:17.641Z,100074.97
2023-11-29T03:51:05.262Z,100068.03
2023-11-29T03:53:52.818Z,100073.50
2023-11-29T03:56:40.400Z,100073.44
2023-11-29T03:59:28.655Z,100083.81
2023-11-29T04:02:16.285Z,100089.00
2023-11-29T04:05:05.250Z,100085.53
2023-11-29T04:07:54.057Z,100085.53
2023-11-29T04:10:42.081Z,100080.34
2023-11-29T04:13:30.068Z,100085.47
2023-11-29T04:16:21.847Z,100085.63
2023-11-29T04:19:09.429Z,100094.44
2023-11-29T04:21:57.381Z,100091.00
2023-11-29T04:24:45.613Z,100090.38
2023-11-29T04:27:33.145Z,100087.69
2023-11-29T04:30:22.771Z,100083.09
2023-11-29T04:33:11.538Z,100098.09
2023-11-29T04:35:59.133Z,100092.19
2023-11-29T04:38:46.848Z,100093.34
2023-11-29T04:41:34.490Z,100092.69
2023-11-29T04:44:23.247Z,100100.44
2023-11-29T04:47:10.832Z,100099.78
2023-11-29T04:49:58.336Z,100109.69
2023-11-29T04:52:45.832Z,100109.50
2023-11-29T04:55:33.464Z,100114.78
2023-11-29T04:58:21.147Z,100121.63
2023-11-29T05:01:10.123Z,100116.28
2023-11-29T05:03:57.717Z,100121.28
2023-11-29T05:06:45.561Z,100121.53
2023-11-29T05:09:33.095Z,100121.63
2023-11-29T05:12:20.589Z,100129.41
2023-11-29T05:15:08.462Z,100135.47
2023-11-29T05:17:56.665Z,100129.88
2023-11-29T05:20:44.447Z,100134.25
2023-11-29T05:23:31.967Z,100130.06
2023-11-29T05:26:19.533Z,100130.81
2023-11-29T05:29:07.088Z,100127.34
2023-11-29T05:31:54.594Z,100144.16
2023-11-29T05:34:42.543Z,100144.94
2023-11-29T05:37:30.065Z,100149.19
2023-11-29T05:40:21.781Z,100149.25
2023-11-29T05:43:09.281Z,100147.53
2023-11-29T05:45:56.856Z,100150.03
2023-11-29T05:48:44.353Z,100147.38
2023-11-29T05:51:31.906Z,100153.81
2023-11-29T05:54:20.054Z,100155.56
2023-11-29T05:57:07.611Z,100149.38
2023-11-29T05:59:57.331Z,100160.59
2023-11-29T06:02:44.868Z,100159.38
2023-11-29T06:05:32.498Z,100159.00
2023-11-29T06:08:21.252Z,100163.88
2023-11-29T06:11:08.863Z,100159.81
2023-11-29T06:13:56.383Z,100158.44
2023-11-29T06:16:43.880Z,100174.41
2023-11-29T06:19:31.372Z,100162.47
2023-11-29T06:22:18.912Z,100169.91
2023-11-29T06:25:06.669Z,100161.88
2023-11-29T06:27:54.224Z,100170.94
2023-11-29T06:30:42.373Z,100170.75
2023-11-29T06:33:29.936Z,100170.63
2023-11-29T06:36:17.460Z,100180.66
2023-11-29T06:39:05.460Z,100178.59
2023-11-29T06:41:53.191Z,100190.72
2023-11-29T06:44:40.827Z,100190.38
2023-11-29T06:47:28.499Z,100171.28
2023-11-29T06:50:16.219Z,100194.69
2023-11-29T06:53:05.801Z,100202.72
2023-11-29T06:55:53.747Z,100203.09
2023-11-29T06:58:41.341Z,100210.22
2023-11-29T07:01:29.001Z,100215.47
2023-11-29T07:04:16.750Z,100215.72
2023-11-29T07:07:04.465Z,100220.94
2023-11-29T07:09:53.862Z,100221.09
2023-11-29T07:12:41.405Z,100219.91
2023-11-29T07:15:29.111Z,100226.09
2023-11-29T07:18:16.699Z,100221.72
2023-11-29T07:21:04.977Z,100233.28
2023-11-29T07:23:52.662Z,100234.31
2023-11-29T07:26:40.561Z,100235.69
2023-11-29T07:29:29.529Z,100241.09
2023-11-29T07:32:17.533Z,100237.72
2023-11-29T07:35:05.520Z,100236.16
2023-11-29T07:37:52.982Z,100239.28
2023-11-29T07:40:40.499Z,100239.53
2023-11-29T07:43:27.972Z,100240.44
2023-11-29T07:46:15.581Z,100241.66
2023-11-29T07:49:03.108Z,100236.38
2023-11-29T07:51:50.658Z,100240.25
2023-11-29T07:54:38.296Z,100243.97
2023-11-29T07:57:25.805Z,100250.38
2023-11-29T08:00:16.427Z,100255.53
2023-11-29T08:03:04.341Z,100263.00
2023-11-29T08:05:52.210Z,100261.47
2023-11-29T08:08:40.053Z,100272.41
2023-11-29T08:11:29.141Z,100274.25
2023-11-29T08:14:16.911Z,100269.84
2023-11-29T08:17:04.887Z,100275.88
2023-11-29T08:19:52.552Z,100279.72
2023-11-29T08:22:40.063Z,100276.66
2023-11-29T08:25:27.936Z,100290.47
2023-11-29T08:28:15.484Z,100285.69
2023-11-29T08:31:03.128Z,100298.88
2023-11-29T08:33:50.836Z,100311.63
2023-11-29T08:36:38.337Z,100310.56
2023-11-29T08:39:27.340Z,100307.66
2023-11-29T08:42:15.038Z,100304.91
2023-11-29T08:45:03.011Z,100303.31
2023-11-29T08:47:50.782Z,100308.81
2023-11-29T08:50:38.333Z,100300.75
2023-11-29T08:53:33.412Z,100307.22
2023-11-29T08:56:25.444Z,100315.00
2023-11-29T08:59:12.980Z,100312.63
2023-11-29T09:02:01.163Z,100309.44
2023-11-29T09:04:49.145Z,100313.81
2023-11-29T09:07:37.784Z,100314.72
2023-11-29T09:10:26.049Z,100311.56
2023-11-29T09:13:13.565Z,100319.22
2023-11-29T09:16:01.163Z,100315.25
2023-11-29T09:18:49.386Z,100319.31
2023-11-29T09:21:36.925Z,100317.41
2023-11-29T09:24:24.416Z,100333.31
2023-11-29T09:27:13.082Z,100330.66
2023-11-29T09:30:01.763Z,100329.50
2023-11-29T09:32:50.052Z,100329.22
2023-11-29T09:35:37.668Z,100332.72
2023-11-29T09:38:25.585Z,100333.38
2023-11-29T09:41:14.272Z,100331.81
2023-11-29T09:44:04.534Z,100333.63
2023-11-29T09:46:53.004Z,100330.88
2023-11-29T09:49:40.583Z,100330.13
2023-11-29T09:52:28.242Z,100329.22
2023-11-29T09:55:15.934Z,100337.09
2023-11-29T09:58:04.197Z,100348.88
2023-11-29T10:00:51.704Z,100345.91
2023-11-29T10:03:39.421Z,100341.00
2023-11-29T10:06:27.023Z,100338.13
2023-11-29T10:09:14.970Z,100336.47
2023-11-29T10:12:02.552Z,100336.31
2023-11-29T10:14:57.581Z,100324.63
2023-11-29T10:17:51.819Z,100334.44
2023-11-29T10:20:39.500Z,100334.28
2023-11-29T10:23:27.152Z,100338.56
2023-11-29T10:26:14.956Z,100338.50
2023-11-29T10:29:02.529Z,100339.41
2023-11-29T10:31:51.888Z,100340.63
2023-11-29T10:34:39.911Z,100347.50
2023-11-29T10:37:27.537Z,100344.78
2023-11-29T10:40:18.324Z,100340.47
2023-11-29T10:43:07.025Z,100341.53
2023-11-29T10:45:59.600Z,100342.22
2023-11-29T10:48:51.760Z,100341.31
2023-11-29T10:51:40.188Z,100348.56
2023-11-29T10:54:39.806Z,100352.00
2023-11-29T10:57:58.807Z,100356.84
2023-11-29T11:00:46.438Z,100346.72
2023-11-29T11:03:44.796Z,100356.25
2023-11-29T11:06:32.977Z,100348.34
2023-11-29T11:09:29.696Z,100340.44
2023-11-29T11:12:32.980Z,100352.56
2023-11-29T11:15:23.366Z,100348.75
2023-11-29T11:18:12.381Z,100348.94
2023-11-29T11:21:04.483Z,100346.88
2023-11-29T11:23:52.809Z,100345.91
2023-11-29T11:27:00.299Z,100340.16
2023-11-29T11:29:47.972Z,100344.16
2023-11-29T11:32:38.362Z,100348.09
2023-11-29T11:35:30.429Z,100345.50
2023-11-29T11:38:19.275Z,100352.56
2023-11-29T11:41:07.029Z,100353.53
2023-11-29T11:43:54.565Z,100347.81
2023-11-29T11:46:42.110Z,100356.53
2023-11-29T11:49:29.729Z,100344.81
2023-11-29T11:52:17.291Z,100359.22
2023-11-29T11:55:09.420Z,100358.44
2023-11-29T11:57:59.556Z,100360.00
2023-11-29T12:00:48.272Z,100359.13
2023-11-29T12:03:36.527Z,100361.44
2023-11-29T12:06:24.091Z,100363.19
2023-11-29T12:09:13.803Z,100368.63
2023-11-29T12:12:09.016Z,100366.63
2023-11-29T12:14:57.150Z,100368.16
2023-11-29T12:17:45.868Z,100359.72
2023-11-29T12:20:34.197Z,100367.47
2023-11-29T12:23:31.230Z,100363.66
2023-11-29T12:26:18.897Z,100370.22
2023-11-29T12:29:06.640Z,100363.66
2023-11-29T12:31:54.189Z,100361.44
2023-11-29T12:34:42.497Z,100368.06
2023-11-29T12:37:30.164Z,100364.19
2023-11-29T12:40:19.025Z,100364.56
2023-11-29T12:43:07.291Z,100371.31
2023-11-29T12:45:56.834Z,100370.00
2023-11-29T12:48:45.917Z,100379.94
2023-11-29T12:51:33.835Z,100388.13
2023-11-29T12:54:23.755Z,100384.00
2023-11-29T12:57:11.985Z,100389.47
2023-11-29T12:59:59.728Z,100390.03
2023-11-29T13:02:48.302Z,100379.63
2023-11-29T13:05:35.905Z,100388.25
2023-11-29T13:08:23.412Z,100379.13
2023-11-29T13:11:10.963Z,100394.66
2023-11-29T13:13:58.472Z,100395.16
2023-11-29T13:16:45.969Z,100397.31
2023-11-29T13:19:33.607Z,100400.03
2023-11-29T13:22:21.125Z,100398.22
2023-11-29T13:25:08.706Z,100401.44
2023-11-29T13:27:56.237Z,100388.28
2023-11-29T13:30:44.785Z,100402.41
2023-11-29T13:33:32.405Z,100402.28
2023-11-29T13:36:20.726Z,100408.16
2023-11-29T13:39:12.489Z,100407.66
2023-11-29T13:42:00.383Z,100409.03
2023-11-29T13:44:49.294Z,100402.81
2023-11-29T13:47:38.514Z,100403.88
2023-11-29T13:50:26.969Z,100416.38
2023-11-29T13:53:14.633Z,100410.09
2023-11-29T13:56:02.309Z,100416.88
2023-11-29T13:58:49.949Z,100418.63
2023-11-29T14:01:37.928Z,100421.69
2023-11-29T14:04:25.827Z,100423.81
2023-11-29T14:07:13.540Z,100420.09
2023-11-29T14:10:01.091Z,100420.78
2023-11-29T14:12:48.643Z,100432.06
2023-11-29T14:15:37.272Z,100427.06
2023-11-29T14:18:25.056Z,100416.25
2023-11-29T14:21:14.111Z,100427.03
2023-11-29T14:24:01.737Z,100424.38
2023-11-29T14:26:51.055Z,100431.44
2023-11-29T14:29:39.638Z,100430.06
2023-11-29T14:32:27.352Z,100438.84
2023-11-29T14:35:14.898Z,100442.25
2023-11-29T14:38:04.352Z,100437.09
2023-11-29T14:41:03.181Z,100444.16
2023-11-29T14:43:57.923Z,100441.00
2023-11-29T14:46:45.496Z,100437.47
2023-11-29T14:49:33.182Z,100445.16
2023-11-29T14:52:20.781Z,100445.00
2023-11-29T14:55:08.401Z,100451.00
2023-11-29T14:57:55.884Z,100452.81
2023-11-29T15:00:43.410Z,100447.47
2023-11-29T15:03:31.066Z,100452.53
2023-11-29T15:06:18.628Z,100449.91
2023-11-29T15:09:06.424Z,100445.34
2023-11-29T15:11:56.041Z,100451.44
2023-11-29T15:14:43.786Z,100457.50
2023-11-29T15:17:31.461Z,100454.47
2023-11-29T15:20:19.164Z,100458.16
2023-11-29T15:23:06.633Z,100457.34
2023-11-29T15:25:54.273Z,100461.84
2023-11-29T15:28:41.741Z,100470.66
2023-11-29T15:31:29.296Z,100470.47
2023-11-29T15:34:16.897Z,100465.03
2023-11-29T15:37:04.784Z,100463.63
2023-11-29T15:39:52.449Z,100467.31
2023-11-29T15:42:40.593Z,100471.59
2023-11-29T15:45:28.197Z,100466.94
2023-11-29T15:48:15.838Z,100463.28
2023-11-29T15:51:03.445Z,100463.38
2023-11-29T15:53:51.315Z,100465.03
2023-11-29T15:56:38.916Z,100469.38
2023-11-29T15:59:26.416Z,100467.59
2023-11-29T16:02:14.064Z,100466.59
2023-11-29T16:05:01.722Z,100468.31
2023-11-29T16:07:51.893Z,100464.13
2023-11-29T16:10:39.394Z,100470.25
2023-11-29T16:13:26.892Z,100463.38
2023-11-29T16:16:14.487Z,100466.78
2023-11-29T16:19:02.679Z,100464.78
2023-11-29T16:21:50.229Z,100473.66
2023-11-29T16:24:37.725Z,100472.06
2023-11-29T16:27:27.883Z,100472.00
2023-11-29T16:30:15.775Z,100475.53
2023-11-29T16:33:04.317Z,100475.28
2023-11-29T16:35:51.961Z,100474.53
2023-11-29T16:38:39.619Z,100478.09
2023-11-29T16:41:27.170Z,100475.34
2023-11-29T16:44:14.743Z,100473.41
2023-11-29T16:47:02.304Z,100475.22
2023-11-29T16:49:49.795Z,100482.16
2023-11-29T16:52:37.418Z,100479.03
2023-11-29T16:55:24.993Z,100477.41
2023-11-29T16:58:13.312Z,100476.78
2023-11-29T17:01:00.846Z,100471.53
2023-11-29T17:03:50.525Z,100470.38
2023-11-29T17:06:38.372Z,100480.97
2023-11-29T17:09:25.945Z,100475.66
2023-11-29T17:12:14.079Z,100486.06
2023-11-29T17:15:01.710Z,100492.94
2023-11-29T17:17:50.069Z,100494.78
2023-11-29T17:20:37.675Z,100499.13
2023-11-29T17:23:25.346Z,100506.91
2023-11-29T17:26:12.842Z,100498.28
2023-11-29T17:29:00.442Z,100494.69
2023-11-29T17:31:48.365Z,100497.16
2023-11-29T17:34:38.023Z,100497.13
2023-11-29T17:37:25.552Z,100511.13
2023-11-29T17:40:13.096Z,100509.63
2023-11-29T17:43:00.981Z,100515.66
2023-11-29T17:45:52.541Z,100517.78
2023-11-29T17:48:41.318Z,100514.47
2023-11-29T17:51:29.529Z,100518.25
2023-11-29T17:54:17.246Z,100516.22
2023-11-29T17:57:05.150Z,100521.38
2023-11-29T17:59:53.922Z,100518.59
2023-11-29T18:02:41.582Z,100524.66
2023-11-29T18:05:29.257Z,100525.66
2023-11-29T18:08:16.840Z,100519.22
2023-11-29T18:11:04.502Z,100503.31
2023-11-29T18:13:51.986Z,100516.94
2023-11-29T18:16:41.144Z,100493.38
2023-11-29T18:19:29.277Z,100523.00
2023-11-29T18:22:16.909Z,100524.00
2023-11-29T18:25:04.645Z,100526.56
2023-11-29T18:27:52.276Z,100519.38
2023-11-29T18:30:40.878Z,100522.81
2023-11-29T18:33:31.562Z,100521.31
2023-11-29T18:36:20.954Z,100522.81
2023-11-29T18:39:09.023Z,100516.09
2023-11-29T18:41:57.242Z,100520.78
2023-11-29T18:44:44.815Z,100532.19
2023-11-29T18:47:32.415Z,100522.53
2023-11-29T18:50:19.975Z,100522.63
2023-11-29T18:53:07.772Z,100532.13
2023-11-29T18:55:55.349Z,100527.88
2023-11-29T18:58:42.946Z,100526.97
2023-11-29T19:01:30.900Z,100525.75
2023-11-29T19:04:19.736Z,100517.00
2023-11-29T19:07:07.339Z,100516.81
2023-11-29T19:09:54.915Z,100528.41
2023-11-29T19:12:42.596Z,100523.13
2023-11-29T19:15:30.387Z,100524.81
2023-11-29T19:18:18.147Z,100517.97
2023-11-29T19:21:08.318Z,100520.22
2023-11-29T19:23:58.610Z,100518.50
2023-11-29T19:26:47.028Z,100514.94
2023-11-29T19:29:34.929Z,100516.63
2023-11-29T19:32:22.443Z,100515.19
2023-11-29T19:35:18.538Z,100516.84
2023-11-29T19:38:13.135Z,100508.13
2023-11-29T19:41:00.654Z,100517.09
2023-11-29T19:43:49.300Z,100515.28
2023-11-29T19:46:36.916Z,100517.63
2023-11-29T19:49:24.665Z,100519.22
2023-11-29T19:52:12.368Z,100518.97
2023-11-29T19:55:02.918Z,100524.03
2023-11-29T19:57:50.868Z,100525.44
2023-11-29T20:00:39.950Z,100520.06
2023-11-29T20:03:27.676Z,100524.28
2023-11-29T20:06:24.659Z,100531.28
2023-11-29T20:09:17.784Z,100538.28
2023-11-29T20:12:06.585Z,100546.13
2023-11-29T20:14:57.893Z,100553.22
2023-11-29T20:17:46.077Z,100553.31
2023-11-29T20:20:46.100Z,100542.63
2023-11-29T20:23:41.705Z,100554.94
2023-11-29T20:26:29.444Z,100553.31
2023-11-29T20:29:17.057Z,100549.56
2023-11-29T20:32:04.747Z,100542.81
2023-11-29T20:35:08.699Z,100538.38
2023-11-29T20:37:59.814Z,100543.47
2023-11-29T20:40:48.359Z,100540.75
2023-11-29T20:43:35.982Z,100542.81
2023-11-29T20:46:23.509Z,100541.19
2023-11-29T20:49:11.436Z,100541.50
2023-11-29T20:51:58.930Z,100539.63
2023-11-29T20:54:46.452Z,100535.03
2023-11-29T20:57:33.995Z,100539.28
2023-11-29T21:00:21.557Z,100516.31
2023-11-29T21:03:09.232Z,100538.69
2023-11-29T21:05:56.951Z,100529.06
2023-11-29T21:08:45.108Z,100529.78
2023-11-29T21:11:32.616Z,100527.22
2023-11-29T21:14:20.194Z,100524.22
2023-11-29T21:17:08.153Z,100526.00
2023-11-29T21:19:55.664Z,100527.91
2023-11-29T21:22:43.281Z,100531.41
2023-11-29T21:25:32.049Z,100531.91
2023-11-29T21:28:19.544Z,100526.72
2023-11-29T21:31:07.529Z,100528.50
2023-11-29T21:33:55.698Z,100518.69
2023-11-29T21:36:43.693Z,100525.91
2023-11-29T21:39:31.268Z,100520.63
2023-11-29T21:42:18.895Z,100524.22
2023-11-29T21:45:06.708Z,100516.25
2023-11-29T21:47:54.797Z,100522.59
2023-11-29T21:50:42.538Z,100511.97
2023-11-29T21:53:30.050Z,100512.91
2023-11-29T21:56:18.950Z,100505.03
2023-11-29T21:59:06.403Z,100506.44
2023-11-29T22:01:54.239Z,100513.31
2023-11-29T22:04:43.987Z,100508.13
2023-11-29T22:07:31.816Z,100504.81
2023-11-29T22:10:20.048Z,100497.97
2023-11-29T22:13:07.727Z,100501.53
2023-11-29T22:15:55.315Z,100492.94
2023-11-29T22:18:43.138Z,100494.59
2023-11-29T22:21:30.673Z,100502.09
2023-11-29T22:24:18.193Z,100502.09
2023-11-29T22:27:05.801Z,100497.78
2023-11-29T22:29:53.661Z,100494.13
2023-11-29T22:32:44.610Z,100483.81
2023-11-29T22:35:32.230Z,100487.66
2023-11-29T22:38:20.547Z,100473.59
2023-11-29T22:41:08.709Z,100480.59
2023-11-29T22:43:57.108Z,100478.94
2023-11-29T22:46:44.699Z,100477.28
2023-11-29T22:49:32.763Z,100473.63
2023-11-29T22:52:20.266Z,100474.53
2023-11-29T22:55:08.163Z,100469.19
2023-11-29T22:57:55.679Z,100476.94
2023-11-29T23:00:43.190Z,100473.38
2023-11-29T23:03:34.208Z,100475.16
2023-11-29T23:06:23.180Z,100473.34
2023-11-29T23:09:10.751Z,100468.06
2023-11-29T23:12:01.052Z,100473.41
2023-11-29T23:14:48.609Z,100469.94
2023-11-29T23:17:36.198Z,100468.22
2023-11-29T23:20:23.818Z,100471.59
2023-11-29T23:23:14.403Z,100473.59
2023-11-29T23:26:07.937Z,100470.06
2023-11-29T23:28:55.492Z,100461.34
2023-11-29T23:31:43.109Z,100461.16
2023-11-29T23:34:30.673Z,100454.22
2023-11-29T23:37:18.175Z,100449.09
2023-11-29T23:40:06.103Z,100453.38
2023-11-29T23:42:54.021Z,100453.28
2023-11-29T23:45:41.581Z,100461.94
2023-11-29T23:48:29.189Z,100453.16
2023-11-29T23:51:16.765Z,100445.09
2023-11-29T23:54:04.509Z,100446.97
2023-11-29T23:56:52.128Z,100439.13
2023-11-29T23:59:40.402Z,100441.78
